createdAt,value
2023-05-12T00:02:03.217Z,6.80
2023-05-12T00:04:30.911Z,4.00
2023-05-12T00:06:58.579Z,6.50
2023-05-12T00:09:26.176Z,5.30
2023-05-12T00:11:53.812Z,7.30
2023-05-12T00:14:21.457Z,5.50
2023-05-12T00:16:51.861Z,4.90
2023-05-12T00:19:20.151Z,4.90
2023-05-12T00:21:47.817Z,6.70
2023-05-12T00:24:15.489Z,5.90
2023-05-12T00:26:43.089Z,4.80
2023-05-12T00:29:10.688Z,6.40
2023-05-12T00:31:38.660Z,7.90
2023-05-12T00:34:06.352Z,11.60
2023-05-12T00:36:36.573Z,6.70
2023-05-12T00:39:04.602Z,6.20
2023-05-12T00:41:32.220Z,7.40
2023-05-12T00:43:59.807Z,6.00
2023-05-12T00:46:27.453Z,7.80
2023-05-12T00:48:55.334Z,7.90
2023-05-12T00:51:22.924Z,8.40
2023-05-12T00:53:50.805Z,9.10
2023-05-12T00:56:19.216Z,9.10
2023-05-12T00:58:47.212Z,8.80
2023-05-12T01:01:14.901Z,7.50
2023-05-12T01:03:42.597Z,6.00
2023-05-12T01:06:12.465Z,6.10
2023-05-12T01:08:40.082Z,9.10
2023-05-12T01:11:07.710Z,9.30
2023-05-12T01:13:36.391Z,7.40
2023-05-12T01:16:04.292Z,9.70
2023-05-12T01:18:31.934Z,7.00
2023-05-12T01:20:59.578Z,6.40
2023-05-12T01:23:28.065Z,8.30
2023-05-12T01:25:55.701Z,9.50
2023-05-12T01:28:23.350Z,7.90
2023-05-12T01:30:51.121Z,6.70
2023-05-12T01:33:18.741Z,6.80
2023-05-12T01:35:47.471Z,11.10
2023-05-12T01:38:15.046Z,9.30
2023-05-12T01:40:42.667Z,7.70
2023-05-12T01:43:10.278Z,8.40
2023-05-12T01:45:38.736Z,7.00
2023-05-12T01:48:06.452Z,9.10
2023-05-12T01:50:34.232Z,8.20
2023-05-12T01:53:01.901Z,7.10
2023-05-12T01:55:29.498Z,9.20
2023-05-12T01:57:57.097Z,9.30
2023-05-12T02:00:24.761Z,8.70
2023-05-12T02:02:52.451Z,8.90
2023-05-12T02:05:20.239Z,9.40
2023-05-12T02:07:48.575Z,8.50
2023-05-12T02:10:16.400Z,9.00
2023-05-12T02:12:44.266Z,8.90
2023-05-12T02:15:12.009Z,9.00
2023-05-12T02:17:39.633Z,6.90
2023-05-12T02:20:08.186Z,7.90
2023-05-12T02:22:35.750Z,8.10
2023-05-12T02:25:03.548Z,7.00
2023-05-12T02:27:32.602Z,9.10
2023-05-12T02:30:00.286Z,8.50
2023-05-12T02:32:30.923Z,8.30
2023-05-12T02:34:58.534Z,10.30
2023-05-12T02:37:26.208Z,8.50
2023-05-12T02:39:53.902Z,8.70
2023-05-12T02:42:21.610Z,7.70
2023-05-12T02:44:49.197Z,8.80
2023-05-12T02:47:16.769Z,8.30
2023-05-12T02:49:44.469Z,10.10
2023-05-12T02:52:14.216Z,11.00
2023-05-12T02:54:41.840Z,8.70
2023-05-12T02:57:10.871Z,9.80
2023-05-12T02:59:38.488Z,9.70
2023-05-12T03:02:06.202Z,11.70
2023-05-12T03:04:34.260Z,11.40
2023-05-12T03:07:01.853Z,10.40
2023-05-12T03:09:29.525Z,7.60
2023-05-12T03:11:57.097Z,9.50
2023-05-12T03:14:26.257Z,9.30
2023-05-12T03:16:53.921Z,6.80
2023-05-12T03:19:21.832Z,9.30
2023-05-12T03:21:49.426Z,8.60
2023-05-12T03:24:17.135Z,8.70
2023-05-12T03:26:44.719Z,6.70
2023-05-12T03:29:12.328Z,7.60
2023-05-12T03:31:40.244Z,6.50
2023-05-12T03:34:07.877Z,8.00
2023-05-12T03:36:35.478Z,8.60
2023-05-12T03:39:03.368Z,7.00
2023-05-12T03:41:30.962Z,7.10
2023-05-12T03:43:58.534Z,5.80
2023-05-12T03:46:26.382Z,8.20
2023-05-12T03:48:53.999Z,7.20
2023-05-12T03:51:21.610Z,6.20
2023-05-12T03:53:49.229Z,9.00
2023-05-12T03:56:17.215Z,9.10
2023-05-12T03:58:47.380Z,8.70
2023-05-12T04:01:15.027Z,7.80
2023-05-12T04:03:43.387Z,5.70
2023-05-12T04:06:10.990Z,8.90
2023-05-12T04:08:41.071Z,8.50
2023-05-12T04:11:09.596Z,6.80
2023-05-12T04:13:37.210Z,9.80
2023-05-12T04:16:05.544Z,6.90
2023-05-12T04:18:33.195Z,8.40
2023-05-12T04:21:00.805Z,7.70
2023-05-12T04:23:29.135Z,7.00
2023-05-12T04:25:56.856Z,6.80
2023-05-12T04:28:24.544Z,6.40
2023-05-12T04:30:52.164Z,6.00
2023-05-12T04:33:19.724Z,5.30
2023-05-12T04:35:47.353Z,6.20
2023-05-12T04:38:15.009Z,5.80
2023-05-12T04:40:42.628Z,7.70
2023-05-12T04:43:59.996Z,6.10
2023-05-12T04:46:00.055Z,7.40
2023-05-12T04:48:29.184Z,7.90
2023-05-12T04:50:59.723Z,7.90
2023-05-12T04:53:27.987Z,6.90
2023-05-12T04:55:56.732Z,6.80
2023-05-12T04:58:24.417Z,8.00
2023-05-12T05:00:53.091Z,5.80
2023-05-12T05:03:20.815Z,6.00
2023-05-12T05:05:49.191Z,7.00
2023-05-12T05:08:16.871Z,5.70
2023-05-12T05:10:44.447Z,6.30
2023-05-12T05:13:12.085Z,6.20
2023-05-12T05:15:39.714Z,8.20
2023-05-12T05:18:07.489Z,7.10
2023-05-12T05:20:35.187Z,9.50
2023-05-12T05:23:03.425Z,7.20
2023-05-12T05:25:31.033Z,4.90
2023-05-12T05:27:58.627Z,6.70
2023-05-12T05:30:26.312Z,7.80
2023-05-12T05:32:54.005Z,8.80
2023-05-12T05:35:21.891Z,5.50
2023-05-12T05:37:50.885Z,5.30
2023-05-12T05:40:18.508Z,7.70
2023-05-12T05:42:46.461Z,5.30
2023-05-12T05:45:14.372Z,6.40
2023-05-12T05:47:42.256Z,6.50
2023-05-12T05:50:10.282Z,5.50
2023-05-12T05:52:37.954Z,8.70
2023-05-12T05:55:05.885Z,4.80
2023-05-12T05:57:33.593Z,7.00
2023-05-12T06:00:01.431Z,5.90
2023-05-12T06:02:29.324Z,8.10
2023-05-12T06:04:57.198Z,5.80
2023-05-12T06:07:24.955Z,5.60
2023-05-12T06:09:55.790Z,6.50
2023-05-12T06:12:23.405Z,7.00
2023-05-12T06:14:51.354Z,8.00
2023-05-12T06:17:19.054Z,8.40
2023-05-12T06:19:48.318Z,8.30
2023-05-12T06:22:15.939Z,8.00
2023-05-12T06:24:43.522Z,8.50
2023-05-12T06:27:11.146Z,7.00
2023-05-12T06:29:38.743Z,6.40
2023-05-12T06:32:06.669Z,9.10
2023-05-12T06:34:34.323Z,6.40
2023-05-12T06:37:01.926Z,6.50
2023-05-12T06:39:29.550Z,5.40
2023-05-12T06:41:57.154Z,6.40
2023-05-12T06:44:24.777Z,7.20
2023-05-12T06:46:52.704Z,5.10
2023-05-12T06:49:20.464Z,7.80
2023-05-12T06:51:48.114Z,5.20
2023-05-12T06:54:15.745Z,5.30
2023-05-12T06:56:43.380Z,11.60
2023-05-12T06:59:11.042Z,8.50
2023-05-12T07:01:38.759Z,5.00
2023-05-12T07:04:07.902Z,6.30
2023-05-12T07:06:35.634Z,5.10
2023-05-12T07:09:04.037Z,6.80
2023-05-12T07:11:31.676Z,6.00
2023-05-12T07:13:59.278Z,6.70
2023-05-12T07:16:26.931Z,7.50
2023-05-12T07:18:54.618Z,6.00
2023-05-12T07:21:22.513Z,5.50
2023-05-12T07:23:50.120Z,4.40
2023-05-12T07:26:18.648Z,7.90
2023-05-12T07:28:46.369Z,7.30
2023-05-12T07:31:14.027Z,6.10
2023-05-12T07:33:41.993Z,6.20
2023-05-12T07:36:09.944Z,3.90
2023-05-12T07:38:37.552Z,4.80
2023-05-12T07:41:05.192Z,6.70
2023-05-12T07:43:32.805Z,8.70
2023-05-12T07:46:01.171Z,4.40
2023-05-12T07:48:28.811Z,4.30
2023-05-12T07:50:57.274Z,5.90
2023-05-12T07:53:24.880Z,3.90
2023-05-12T07:55:52.490Z,5.60
2023-05-12T07:58:20.130Z,5.60
2023-05-12T08:00:47.897Z,5.80
2023-05-12T08:03:16.589Z,4.20
2023-05-12T08:05:44.464Z,4.30
2023-05-12T08:08:16.718Z,4.70
2023-05-12T08:10:44.436Z,8.10
2023-05-12T08:13:12.100Z,9.10
2023-05-12T08:15:39.772Z,10.30
2023-05-12T08:18:09.875Z,3.10
2023-05-12T08:20:37.683Z,4.70
2023-05-12T08:23:05.275Z,5.50
2023-05-12T08:25:34.971Z,8.40
2023-05-12T08:28:03.164Z,7.60
2023-05-12T08:30:30.758Z,5.90
2023-05-12T08:32:58.426Z,7.40
2023-05-12T08:35:26.035Z,6.30
2023-05-12T08:37:53.696Z,6.50
2023-05-12T08:40:22.309Z,6.30
2023-05-12T08:43:18.497Z,5.20
2023-05-12T08:45:46.084Z,3.90
2023-05-12T08:48:15.745Z,4.20
2023-05-12T08:50:43.427Z,3.90
2023-05-12T08:53:12.192Z,4.80
2023-05-12T08:55:40.376Z,5.50
2023-05-12T08:58:09.659Z,4.60
2023-05-12T09:00:37.382Z,9.00
2023-05-12T09:03:05.988Z,5.30
2023-05-12T09:05:34.009Z,4.30
2023-05-12T09:08:01.668Z,6.50
2023-05-12T09:13:03.599Z,4.60
2023-05-12T09:15:35.916Z,5.80
2023-05-12T09:18:03.622Z,4.80
2023-05-12T09:20:32.146Z,3.70
2023-05-12T09:23:11.308Z,3.20
2023-05-12T09:25:38.878Z,6.10
2023-05-12T09:28:06.473Z,5.60
2023-05-12T09:30:38.444Z,4.80
2023-05-12T09:33:10.228Z,3.00
2023-05-12T09:35:39.343Z,4.80
2023-05-12T09:38:10.670Z,3.70
2023-05-12T09:40:38.440Z,5.70
2023-05-12T09:43:06.254Z,3.60
2023-05-12T09:45:35.387Z,5.30
2023-05-12T09:48:12.886Z,5.20
2023-05-12T09:50:48.515Z,4.00
2023-05-12T09:53:17.875Z,4.00
2023-05-12T09:55:46.251Z,3.90
2023-05-12T09:58:16.441Z,5.60
2023-05-12T10:01:12.848Z,3.60
2023-05-12T10:03:32.280Z,4.20
2023-05-12T10:06:01.749Z,3.10
2023-05-12T10:08:35.094Z,4.30
2023-05-12T10:11:02.715Z,4.60
2023-05-12T10:13:30.813Z,3.70
2023-05-12T10:15:58.422Z,3.80
2023-05-12T10:18:26.235Z,6.60
2023-05-12T10:20:54.138Z,7.40
2023-05-12T10:23:21.789Z,3.70
2023-05-12T10:25:49.458Z,4.10
2023-05-12T10:28:17.483Z,4.50
2023-05-12T10:30:45.134Z,3.30
2023-05-12T10:33:13.252Z,3.30
2023-05-12T10:35:42.632Z,4.60
2023-05-12T10:38:11.721Z,5.40
2023-05-12T10:40:53.122Z,4.50
2023-05-12T10:43:41.601Z,2.90
2023-05-12T10:46:12.408Z,5.00
2023-05-12T10:48:56.911Z,2.60
2023-05-12T10:51:29.640Z,7.30
2023-05-12T10:53:59.124Z,5.20
2023-05-12T10:56:42.694Z,5.00
2023-05-12T10:59:18.094Z,3.60
2023-05-12T11:02:04.317Z,4.00
2023-05-12T11:04:42.027Z,3.40
2023-05-12T11:07:11.726Z,7.40
2023-05-12T11:09:53.137Z,4.10
2023-05-12T11:12:30.279Z,7.80
2023-05-12T11:14:59.681Z,3.20
2023-05-12T11:17:27.456Z,3.90
2023-05-12T11:19:55.702Z,7.40
2023-05-12T11:22:23.713Z,4.10
2023-05-12T11:24:52.686Z,5.20
2023-05-12T11:27:23.141Z,4.30
2023-05-12T11:30:01.916Z,5.50
2023-05-12T11:32:30.142Z,2.40
2023-05-12T11:35:09.888Z,4.40
2023-05-12T11:37:39.667Z,2.70
2023-05-12T11:40:18.030Z,4.10
2023-05-12T11:42:48.791Z,3.00
2023-05-12T11:45:24.734Z,6.70
2023-05-12T11:47:53.548Z,3.50
2023-05-12T11:50:23.018Z,4.70
2023-05-12T11:52:51.571Z,3.20
2023-05-12T11:55:23.980Z,4.40
2023-05-12T11:58:01.831Z,4.50
2023-05-12T12:00:35.812Z,5.40
2023-05-12T12:03:14.033Z,2.90
2023-05-12T12:05:43.389Z,10.50
2023-05-12T12:08:15.653Z,13.00
2023-05-12T12:10:44.645Z,3.60
2023-05-12T12:13:21.987Z,2.80
2023-05-12T12:15:50.128Z,3.70
2023-05-12T12:18:18.917Z,7.40
2023-05-12T12:20:46.855Z,3.90
2023-05-12T12:23:14.622Z,4.00
2023-05-12T12:25:43.507Z,4.40
2023-05-12T12:28:11.110Z,3.90
2023-05-12T12:30:38.884Z,4.90
2023-05-12T12:33:06.560Z,3.50
2023-05-12T12:35:34.224Z,5.30
2023-05-12T12:38:01.831Z,3.20
2023-05-12T12:40:29.449Z,6.50
2023-05-12T12:42:57.086Z,2.70
2023-05-12T12:45:25.163Z,4.30
2023-05-12T12:47:54.843Z,4.80
2023-05-12T12:50:25.057Z,3.40
2023-05-12T12:52:53.585Z,5.60
2023-05-12T12:55:21.820Z,6.10
2023-05-12T12:57:49.737Z,5.50
2023-05-12T13:00:17.712Z,4.40
2023-05-12T13:02:45.657Z,3.20
2023-05-12T13:05:13.402Z,4.60
2023-05-12T13:07:41.222Z,3.50
2023-05-12T13:10:09.664Z,4.70
2023-05-12T13:12:37.398Z,4.50
2023-05-12T13:15:05.983Z,3.40
2023-05-12T13:17:33.694Z,3.70
2023-05-12T13:20:02.129Z,2.50
2023-05-12T13:22:29.839Z,3.10
2023-05-12T13:24:57.489Z,4.50
2023-05-12T13:27:25.118Z,3.90
2023-05-12T13:29:52.796Z,5.00
2023-05-12T13:32:20.892Z,3.50
2023-05-12T13:34:48.957Z,7.30
2023-05-12T13:37:16.574Z,3.60
2023-05-12T13:39:44.247Z,3.80
2023-05-12T13:42:11.855Z,4.30
2023-05-12T13:44:39.485Z,4.90
2023-05-12T13:47:10.365Z,3.60
2023-05-12T13:49:38.000Z,4.90
2023-05-12T13:52:06.443Z,3.80
2023-05-12T13:54:34.075Z,5.10
2023-05-12T13:57:04.022Z,3.40
2023-05-12T13:59:31.907Z,5.90
2023-05-12T14:01:59.673Z,3.20
2023-05-12T14:04:27.336Z,6.90
2023-05-12T14:06:55.415Z,4.10
2023-05-12T14:09:23.260Z,6.90
2023-05-12T14:11:50.879Z,3.90
2023-05-12T14:14:18.530Z,4.60
2023-05-12T14:16:46.205Z,3.40
2023-05-12T14:19:13.943Z,4.20
2023-05-12T14:21:42.051Z,6.00
2023-05-12T14:24:10.110Z,4.10
2023-05-12T14:26:37.685Z,5.50
2023-05-12T14:29:06.915Z,3.20
2023-05-12T14:31:35.816Z,3.80
2023-05-12T14:34:04.321Z,3.70
2023-05-12T14:36:32.224Z,3.00
2023-05-12T14:38:59.817Z,3.60
2023-05-12T14:41:27.432Z,3.50
2023-05-12T14:43:55.140Z,3.60
2023-05-12T14:46:24.993Z,4.20
2023-05-12T14:48:52.776Z,3.60
2023-05-12T14:51:20.409Z,6.40
2023-05-12T14:53:48.783Z,3.70
2023-05-12T14:56:16.356Z,4.80
2023-05-12T14:58:43.946Z,3.20
2023-05-12T15:01:12.480Z,5.90
2023-05-12T15:03:40.268Z,4.50
2023-05-12T15:06:08.431Z,5.20
2023-05-12T15:08:36.359Z,6.40
2023-05-12T15:11:04.407Z,6.60
2023-05-12T15:13:32.040Z,4.40
2023-05-12T15:15:59.837Z,3.40
2023-05-12T15:18:27.490Z,9.00
2023-05-12T15:20:55.262Z,4.40
2023-05-12T15:23:23.043Z,3.80
2023-05-12T15:25:50.644Z,3.20
2023-05-12T15:28:18.331Z,3.80
2023-05-12T15:30:45.984Z,4.10
2023-05-12T15:33:13.656Z,3.50
2023-05-12T15:35:41.708Z,4.60
2023-05-12T15:38:09.327Z,3.10
2023-05-12T15:40:37.300Z,4.80
2023-05-12T15:43:05.148Z,6.30
2023-05-12T15:45:33.006Z,3.70
2023-05-12T15:48:00.922Z,6.50
2023-05-12T15:50:28.542Z,4.10
2023-05-12T15:52:56.528Z,4.80
2023-05-12T15:55:24.319Z,8.70
2023-05-12T15:57:53.680Z,3.00
2023-05-12T16:00:22.614Z,3.50
2023-05-12T16:02:50.518Z,4.40
2023-05-12T16:05:18.404Z,5.10
2023-05-12T16:07:47.212Z,4.40
2023-05-12T16:10:14.946Z,2.70
2023-05-12T16:12:42.728Z,5.70
2023-05-12T16:15:11.404Z,4.60
2023-05-12T16:17:39.029Z,5.00
2023-05-12T16:20:07.841Z,5.10
2023-05-12T16:22:35.478Z,6.60
2023-05-12T16:25:04.887Z,6.30
2023-05-12T16:27:33.629Z,6.10
2023-05-12T16:30:01.239Z,3.20
2023-05-12T16:34:57.022Z,4.10
2023-05-12T16:37:24.657Z,4.40
2023-05-12T16:39:52.281Z,7.20
2023-05-12T16:42:20.203Z,5.70
2023-05-12T16:44:48.060Z,7.00
2023-05-12T16:47:15.700Z,8.10
2023-05-12T16:49:43.420Z,8.00
2023-05-12T16:52:12.405Z,4.80
2023-05-12T16:54:40.277Z,5.80
2023-05-12T16:57:07.902Z,5.40
2023-05-12T16:59:36.429Z,7.90
2023-05-12T17:02:04.313Z,18.60
2023-05-12T17:04:32.347Z,9.00
2023-05-12T17:06:59.936Z,13.00
2023-05-12T17:09:27.519Z,9.20
2023-05-12T17:11:55.361Z,10.90
2023-05-12T17:14:23.494Z,7.70
2023-05-12T17:16:51.675Z,5.70
2023-05-12T17:19:19.389Z,10.00
2023-05-12T17:21:47.094Z,6.60
2023-05-12T17:24:14.729Z,10.30
2023-05-12T17:26:42.353Z,11.30
2023-05-12T17:29:09.964Z,9.90
2023-05-12T17:31:37.971Z,9.40
2023-05-12T17:34:05.806Z,7.80
2023-05-12T17:36:33.778Z,8.30
2023-05-12T17:39:02.279Z,7.40
2023-05-12T17:41:29.891Z,5.40
2023-05-12T17:43:57.521Z,6.50
2023-05-12T17:46:25.178Z,6.30
2023-05-12T17:48:52.795Z,8.60
2023-05-12T17:51:20.379Z,8.00
2023-05-12T17:53:47.972Z,6.30
2023-05-12T17:56:15.655Z,5.70
2023-05-12T17:58:43.217Z,6.00
2023-05-12T18:01:10.855Z,5.70
2023-05-12T18:03:38.586Z,8.30
2023-05-12T18:06:06.513Z,7.60
2023-05-12T18:08:34.090Z,6.80
2023-05-12T18:11:01.743Z,6.20
2023-05-12T18:13:29.335Z,8.00
2023-05-12T18:15:56.974Z,5.60
2023-05-12T18:18:26.110Z,8.10
2023-05-12T18:20:53.819Z,7.40
2023-05-12T18:23:21.550Z,8.00
2023-05-12T18:25:49.224Z,6.90
2023-05-12T18:28:16.948Z,7.80
2023-05-12T18:30:44.627Z,9.40
2023-05-12T18:33:12.654Z,12.20
2023-05-12T18:35:40.751Z,12.40
2023-05-12T18:38:08.452Z,10.10
2023-05-12T18:40:36.223Z,15.80
2023-05-12T18:43:03.873Z,9.00
2023-05-12T18:45:31.569Z,8.40
2023-05-12T18:47:59.277Z,8.20
2023-05-12T18:50:27.094Z,9.40
2023-05-12T18:52:54.828Z,9.40
2023-05-12T18:55:22.667Z,11.20
2023-05-12T18:57:50.417Z,14.10
2023-05-12T19:00:18.367Z,12.40
2023-05-12T19:02:47.243Z,13.60
2023-05-12T19:05:14.931Z,10.20
2023-05-12T19:07:42.563Z,11.80
2023-05-12T19:10:10.530Z,8.20
2023-05-12T19:12:38.381Z,10.00
2023-05-12T19:15:06.577Z,9.70
2023-05-12T19:17:34.372Z,10.30
2023-05-12T19:20:02.022Z,10.00
2023-05-12T19:22:29.614Z,11.30
2023-05-12T19:24:57.263Z,9.30
2023-05-12T19:27:27.068Z,10.00
2023-05-12T19:29:55.115Z,8.60
2023-05-12T19:32:23.223Z,11.20
2023-05-12T19:34:51.430Z,8.00
2023-05-12T19:37:19.477Z,12.20
2023-05-12T19:39:47.445Z,9.50
2023-05-12T19:42:15.088Z,10.90
2023-05-12T19:44:42.765Z,9.50
2023-05-12T19:47:11.343Z,9.10
2023-05-12T19:49:38.979Z,9.70
2023-05-12T19:52:06.926Z,12.20
2023-05-12T19:54:34.559Z,10.40
2023-05-12T19:57:02.172Z,9.40
2023-05-12T19:59:29.871Z,9.90
2023-05-12T20:01:57.481Z,13.80
2023-05-12T20:04:25.912Z,12.40
2023-05-12T20:06:54.551Z,11.10
2023-05-12T20:09:23.234Z,12.20
2023-05-12T20:11:51.059Z,11.60
2023-05-12T20:14:18.685Z,12.10
2023-05-12T20:16:46.353Z,9.20
2023-05-12T20:19:14.164Z,8.60
2023-05-12T20:21:41.999Z,8.00
2023-05-12T20:24:09.575Z,8.50
2023-05-12T20:26:37.644Z,7.60
2023-05-12T20:29:05.289Z,6.60
2023-05-12T20:31:32.986Z,8.00
2023-05-12T20:34:00.609Z,6.70
2023-05-12T20:36:28.239Z,12.80
2023-05-12T20:38:56.188Z,8.10
2023-05-12T20:41:23.812Z,6.30
2023-05-12T20:43:51.435Z,5.80
2023-05-12T20:46:19.676Z,7.60
2023-05-12T20:48:47.422Z,5.80
2023-05-12T20:51:15.089Z,6.80
2023-05-12T20:53:42.814Z,9.40
2023-05-12T20:56:10.730Z,6.40
2023-05-12T20:58:38.509Z,8.10
2023-05-12T21:01:06.339Z,8.20
2023-05-12T21:03:34.266Z,7.50
2023-05-12T21:06:02.052Z,5.30
2023-05-12T21:08:29.624Z,5.60
2023-05-12T21:10:58.905Z,8.10
2023-05-12T21:13:26.967Z,7.30
2023-05-12T21:15:54.583Z,6.50
2023-05-12T21:18:23.257Z,5.20
2023-05-12T21:20:51.101Z,5.70
2023-05-12T21:23:19.056Z,7.70
2023-05-12T21:25:46.746Z,5.90
2023-05-12T21:28:15.477Z,7.00
2023-05-12T21:30:43.143Z,5.40
2023-05-12T21:33:10.786Z,7.10
2023-05-12T21:35:38.407Z,7.00
2023-05-12T21:38:08.449Z,8.10
2023-05-12T21:40:37.064Z,6.90
2023-05-12T21:43:04.714Z,7.80
2023-05-12T21:45:32.348Z,6.60
2023-05-12T21:48:00.050Z,6.70
2023-05-12T21:50:27.738Z,7.80
2023-05-12T21:52:55.327Z,9.30
2023-05-12T21:55:22.987Z,5.40
2023-05-12T21:57:50.579Z,5.70
2023-05-12T22:00:20.326Z,6.40
2023-05-12T22:02:48.203Z,6.90
2023-05-12T22:05:15.918Z,6.30
2023-05-12T22:07:43.992Z,7.30
2023-05-12T22:10:11.961Z,6.80
2023-05-12T22:12:40.321Z,7.20
2023-05-12T22:15:08.223Z,6.60
2023-05-12T22:17:35.877Z,6.10
2023-05-12T22:20:04.192Z,8.10
2023-05-12T22:22:31.768Z,7.90
2023-05-12T22:24:59.368Z,8.80
2023-05-12T22:27:26.944Z,5.00
2023-05-12T22:29:55.729Z,5.40
2023-05-12T22:32:23.652Z,8.10
2023-05-12T22:34:54.781Z,7.20
2023-05-12T22:37:22.404Z,11.10
2023-05-12T22:39:50.019Z,8.90
2023-05-12T22:42:17.606Z,7.90
2023-05-12T22:44:45.180Z,7.00
2023-05-12T22:47:12.876Z,7.20
2023-05-12T22:49:40.714Z,9.00
2023-05-12T22:52:08.569Z,7.30
2023-05-12T22:54:36.214Z,9.20
2023-05-12T22:57:03.965Z,6.80
2023-05-12T22:59:31.541Z,6.70
2023-05-12T23:01:59.133Z,6.80
2023-05-12T23:04:27.013Z,7.80
2023-05-12T23:06:54.749Z,14.60
2023-05-12T23:09:22.425Z,11.30
2023-05-12T23:11:50.038Z,11.80
2023-05-12T23:14:17.687Z,11.00
2023-05-12T23:16:45.326Z,9.30
2023-05-12T23:19:12.961Z,9.70
2023-05-12T23:21:40.567Z,12.20
2023-05-12T23:24:09.007Z,12.20
2023-05-12T23:26:37.146Z,15.90
2023-05-12T23:29:04.741Z,16.80
2023-05-12T23:31:32.394Z,10.30
2023-05-12T23:33:59.991Z,7.70
2023-05-12T23:36:27.587Z,9.90
2023-05-12T23:38:55.352Z,12.20
2023-05-12T23:41:23.011Z,9.80
2023-05-12T23:43:50.602Z,9.80
2023-05-12T23:46:18.219Z,9.30
2023-05-12T23:48:45.890Z,8.60
2023-05-12T23:51:13.450Z,8.60
2023-05-12T23:53:41.241Z,8.70
2023-05-12T23:56:08.877Z,9.60
2023-05-12T23:58:36.477Z,9.60
